createdAt,value
2023-04-19T00:00:52.971Z,88.51
2023-04-19T00:01:53.326Z,88.55
2023-04-19T00:02:53.801Z,88.41
2023-04-19T00:03:54.176Z,88.34
2023-04-19T00:04:54.450Z,87.99
2023-04-19T00:05:54.666Z,88.10
2023-04-19T00:06:55.019Z,88.24
2023-04-19T00:07:55.353Z,88.04
2023-04-19T00:08:55.717Z,87.52
2023-04-19T00:09:56.100Z,87.52
2023-04-19T00:10:56.465Z,87.21
2023-04-19T00:11:56.788Z,87.10
2023-04-19T00:12:57.122Z,86.90
2023-04-19T00:13:57.475Z,86.79
2023-04-19T00:14:57.840Z,86.90
2023-04-19T00:15:58.193Z,85.83
2023-04-19T00:16:58.632Z,85.72
2023-04-19T00:17:58.914Z,85.21
2023-04-19T00:18:59.238Z,85.00
2023-04-19T00:19:59.626Z,85.10
2023-04-19T00:20:59.917Z,84.48
2023-04-19T00:22:00.260Z,83.97
2023-04-19T00:23:00.600Z,83.41
2023-04-19T00:24:00.946Z,83.55
2023-04-19T00:25:01.321Z,83.25
2023-04-19T00:26:01.661Z,83.34
2023-04-19T00:27:02.054Z,83.45
2023-04-19T00:28:02.364Z,83.45
2023-04-19T00:29:02.708Z,83.34
2023-04-19T00:30:03.068Z,83.45
2023-04-19T00:31:03.478Z,83.65
2023-04-19T00:32:03.777Z,83.55
2023-04-19T00:33:04.175Z,83.45
2023-04-19T00:34:04.459Z,83.34
2023-04-19T00:35:04.830Z,83.55
2023-04-19T00:36:05.166Z,83.76
2023-04-19T00:37:05.544Z,83.80
2023-04-19T00:38:05.866Z,83.90
2023-04-19T00:39:06.233Z,84.21
2023-04-19T00:40:06.579Z,84.00
2023-04-19T00:41:06.921Z,83.80
2023-04-19T00:42:07.270Z,84.00
2023-04-19T00:43:07.624Z,83.59
2023-04-19T00:44:07.948Z,83.70
2023-04-19T00:45:08.301Z,83.80
2023-04-19T00:46:08.697Z,83.84
2023-04-19T00:47:09.012Z,83.28
2023-04-19T00:48:09.409Z,82.97
2023-04-19T00:49:09.711Z,82.97
2023-04-19T00:50:10.112Z,83.18
2023-04-19T00:51:10.449Z,83.28
2023-04-19T00:52:10.787Z,83.42
2023-04-19T00:53:11.118Z,83.53
2023-04-19T00:54:11.459Z,83.63
2023-04-19T00:55:11.835Z,83.84
2023-04-19T00:56:12.149Z,84.05
2023-04-19T00:57:12.475Z,84.15
2023-04-19T00:58:12.831Z,84.15
2023-04-19T00:59:13.184Z,84.25
2023-04-19T01:00:13.529Z,84.56
2023-04-19T01:01:13.970Z,84.91
2023-04-19T01:02:14.277Z,85.22
2023-04-19T01:03:14.749Z,85.53
2023-04-19T01:04:15.242Z,85.74
2023-04-19T01:05:15.352Z,85.60
2023-04-19T01:06:15.620Z,85.60
2023-04-19T01:07:15.954Z,85.70
2023-04-19T01:08:16.299Z,85.49
2023-04-19T01:09:16.637Z,85.60
2023-04-19T01:10:17.124Z,85.70
2023-04-19T01:11:17.347Z,85.80
2023-04-19T01:12:17.714Z,85.80
2023-04-19T01:13:18.034Z,86.01
2023-04-19T01:14:18.365Z,85.91
2023-04-19T01:15:18.761Z,85.91
2023-04-19T01:16:19.133Z,85.80
2023-04-19T01:17:19.560Z,85.91
2023-04-19T01:18:19.794Z,86.11
2023-04-19T01:19:20.132Z,86.25
2023-04-19T01:20:20.522Z,86.46
2023-04-19T01:21:20.854Z,86.46
2023-04-19T01:22:21.154Z,86.36
2023-04-19T01:23:21.490Z,86.46
2023-04-19T01:24:21.830Z,86.67
2023-04-19T01:25:22.188Z,86.88
2023-04-19T01:26:22.530Z,86.88
2023-04-19T01:27:22.875Z,87.12
2023-04-19T01:28:23.243Z,87.08
2023-04-19T01:29:23.590Z,87.33
2023-04-19T01:30:23.972Z,87.33
2023-04-19T01:31:24.318Z,87.33
2023-04-19T01:32:24.602Z,87.33
2023-04-19T01:33:24.932Z,87.43
2023-04-19T01:34:25.283Z,87.33
2023-04-19T01:35:25.628Z,87.33
2023-04-19T01:36:25.985Z,87.33
2023-04-19T01:37:26.318Z,87.23
2023-04-19T01:38:26.649Z,87.33
2023-04-19T01:39:27.007Z,87.33
2023-04-19T01:40:27.374Z,87.33
2023-04-19T01:41:27.694Z,87.23
2023-04-19T01:42:28.146Z,87.02
2023-04-19T01:43:28.400Z,87.12
2023-04-19T01:44:28.743Z,87.23
2023-04-19T01:45:29.098Z,87.33
2023-04-19T01:46:29.464Z,87.33
2023-04-19T01:47:29.814Z,87.43
2023-04-19T01:48:30.128Z,87.54
2023-04-19T01:49:30.497Z,87.57
2023-04-19T01:50:30.860Z,87.64
2023-04-19T01:51:31.192Z,87.64
2023-04-19T01:52:31.541Z,87.54
2023-04-19T01:53:31.877Z,87.68
2023-04-19T01:54:32.222Z,87.78
2023-04-19T01:55:32.594Z,87.68
2023-04-19T01:56:32.935Z,87.33
2023-04-19T01:57:33.278Z,87.23
2023-04-19T01:58:33.673Z,87.12
2023-04-19T01:59:33.974Z,87.02
2023-04-19T02:00:34.358Z,87.02
2023-04-19T02:01:34.640Z,86.81
2023-04-19T02:02:35.198Z,86.60
2023-04-19T02:03:35.644Z,86.81
2023-04-19T02:04:35.687Z,86.96
2023-04-19T02:05:36.055Z,87.16
2023-04-19T02:06:36.396Z,87.37
2023-04-19T02:07:36.740Z,87.47
2023-04-19T02:08:37.100Z,87.78
2023-04-19T02:09:37.439Z,88.03
2023-04-19T02:10:37.808Z,88.34
2023-04-19T02:11:38.144Z,88.65
2023-04-19T02:12:38.482Z,88.86
2023-04-19T02:13:38.831Z,89.21
2023-04-19T02:14:39.167Z,89.42
2023-04-19T02:15:39.506Z,89.52
2023-04-19T02:16:39.899Z,89.62
2023-04-19T02:17:40.244Z,89.73
2023-04-19T02:18:40.564Z,89.83
2023-04-19T02:19:40.904Z,89.94
2023-04-19T02:20:41.293Z,89.94
2023-04-19T02:21:41.644Z,89.94
2023-04-19T02:22:42.005Z,90.08
2023-04-19T02:23:42.324Z,90.29
2023-04-19T02:24:42.689Z,90.50
2023-04-19T02:25:43.085Z,90.60
2023-04-19T02:26:43.385Z,90.81
2023-04-19T02:27:43.739Z,90.95
2023-04-19T02:28:44.078Z,91.16
2023-04-19T02:29:44.435Z,91.27
2023-04-19T02:30:44.804Z,91.47
2023-04-19T02:31:45.205Z,91.72
2023-04-19T02:32:45.517Z,91.93
2023-04-19T02:33:45.871Z,92.28
2023-04-19T02:34:46.189Z,92.49
2023-04-19T02:35:46.545Z,92.90
2023-04-19T02:36:46.875Z,93.26
2023-04-19T02:37:47.231Z,93.57
2023-04-19T02:38:47.550Z,93.57
2023-04-19T02:39:47.892Z,93.57
2023-04-19T02:40:48.250Z,93.78
2023-04-19T02:41:48.615Z,93.99
2023-04-19T02:42:48.986Z,93.99
2023-04-19T02:43:49.334Z,94.09
2023-04-19T02:44:49.671Z,94.09
2023-04-19T02:45:50.051Z,94.13
2023-04-19T02:46:50.365Z,94.24
2023-04-19T02:47:50.728Z,94.09
2023-04-19T02:48:51.046Z,93.99
2023-04-19T02:49:51.388Z,93.88
2023-04-19T02:50:51.746Z,93.88
2023-04-19T02:51:52.078Z,93.57
2023-04-19T02:52:52.412Z,93.37
2023-04-19T02:53:52.755Z,92.90
2023-04-19T02:54:59.112Z,92.03
2023-04-19T02:55:53.490Z,91.62
2023-04-19T02:56:53.854Z,90.81
2023-04-19T02:57:54.176Z,89.67
2023-04-19T02:58:54.514Z,89.56
2023-04-19T02:59:54.870Z,89.56
2023-04-19T03:00:55.240Z,89.67
2023-04-19T03:01:55.709Z,89.81
2023-04-19T03:02:56.025Z,90.12
2023-04-19T03:03:56.369Z,90.27
2023-04-19T03:04:56.629Z,90.69
2023-04-19T03:05:56.993Z,90.79
2023-04-19T03:06:57.327Z,91.03
2023-04-19T03:07:57.674Z,91.24
2023-04-19T03:08:58.024Z,91.60
2023-04-19T03:09:58.361Z,92.01
2023-04-19T03:10:58.751Z,92.68
2023-04-19T03:11:59.076Z,93.20
2023-04-19T03:12:59.417Z,93.62
2023-04-19T03:13:59.765Z,93.82
2023-04-19T03:15:00.139Z,94.24
2023-04-19T03:16:00.519Z,94.55
2023-04-19T03:17:00.808Z,94.76
2023-04-19T03:18:01.173Z,95.01
2023-04-19T03:19:01.494Z,95.11
2023-04-19T03:20:01.926Z,95.21
2023-04-19T03:21:02.227Z,95.42
2023-04-19T03:22:02.561Z,95.84
2023-04-19T03:23:02.913Z,95.94
2023-04-19T03:24:03.250Z,96.36
2023-04-19T03:25:03.589Z,96.15
2023-04-19T03:26:03.984Z,96.15
2023-04-19T03:27:04.285Z,96.15
2023-04-19T03:28:04.631Z,96.25
2023-04-19T03:29:04.972Z,96.36
2023-04-19T03:30:05.325Z,96.25
2023-04-19T03:31:05.779Z,96.61
2023-04-19T03:32:06.051Z,96.92
2023-04-19T03:33:06.448Z,96.82
2023-04-19T03:34:06.741Z,97.03
2023-04-19T03:35:07.043Z,97.38
2023-04-19T03:36:07.286Z,97.91
2023-04-19T03:37:07.570Z,98.32
2023-04-19T03:38:07.860Z,98.47
2023-04-19T03:39:08.155Z,98.78
2023-04-19T03:40:08.447Z,99.30
2023-04-19T03:41:08.736Z,99.51
2023-04-19T03:42:09.011Z,99.82
2023-04-19T03:43:09.267Z,99.82
2023-04-19T03:44:10.190Z,99.93
2023-04-19T03:45:09.851Z,99.72
2023-04-19T03:46:10.156Z,99.72
2023-04-19T03:47:10.428Z,99.72
2023-04-19T03:48:10.752Z,99.93
2023-04-19T03:49:11.006Z,99.62
2023-04-19T03:50:11.275Z,99.62
2023-04-19T03:51:11.580Z,99.62
2023-04-19T03:52:11.844Z,99.51
2023-04-19T03:53:12.009Z,99.62
2023-04-19T03:54:12.176Z,99.66
2023-04-19T03:55:12.542Z,99.55
2023-04-19T03:56:12.763Z,99.55
2023-04-19T03:57:13.021Z,99.76
2023-04-19T03:58:13.197Z,99.93
2023-04-19T03:59:13.488Z,99.82
2023-04-19T04:00:13.787Z,99.51
2023-04-19T04:01:14.107Z,99.62
2023-04-19T04:02:14.508Z,99.62
2023-04-19T04:03:14.825Z,99.66
2023-04-19T04:04:15.387Z,99.66
2023-04-19T04:05:15.311Z,99.76
2023-04-19T04:06:15.543Z,99.98
2023-04-19T04:07:15.815Z,99.98
2023-04-19T04:08:16.044Z,99.99
2023-04-19T04:09:16.268Z,99.99
2023-04-19T04:10:16.437Z,99.99
2023-04-19T04:11:16.637Z,99.99
2023-04-19T04:12:16.901Z,99.99
2023-04-19T04:13:17.085Z,99.99
2023-04-19T04:14:17.360Z,99.99
2023-04-19T04:15:17.570Z,99.99
2023-04-19T04:16:17.909Z,99.99
2023-04-19T04:17:18.008Z,99.99
2023-04-19T04:18:18.172Z,99.99
2023-04-19T04:19:18.342Z,99.99
2023-04-19T04:20:18.511Z,99.99
2023-04-19T04:21:18.700Z,99.99
2023-04-19T04:22:18.979Z,99.99
2023-04-19T04:23:19.151Z,99.99
2023-04-19T04:24:19.306Z,99.99
2023-04-19T04:25:21.199Z,99.99
2023-04-19T04:26:19.704Z,99.99
2023-04-19T04:27:19.838Z,99.99
2023-04-19T04:28:20.007Z,99.99
2023-04-19T04:29:20.180Z,99.99
2023-04-19T04:30:20.361Z,99.93
2023-04-19T04:31:20.603Z,99.93
2023-04-19T04:32:20.761Z,99.82
2023-04-19T04:33:20.883Z,99.82
2023-04-19T04:34:21.194Z,99.77
2023-04-19T04:35:21.349Z,99.36
2023-04-19T04:36:21.542Z,99.01
2023-04-19T04:37:21.709Z,98.80
2023-04-19T04:38:25.006Z,98.48
2023-04-19T04:39:22.152Z,98.38
2023-04-19T04:40:22.333Z,98.02
2023-04-19T04:41:22.927Z,97.71
2023-04-19T04:42:22.671Z,97.50
2023-04-19T04:43:22.873Z,97.40
2023-04-19T04:44:23.164Z,97.09
2023-04-19T04:45:23.206Z,96.98
2023-04-19T04:46:23.431Z,96.83
2023-04-19T04:47:23.609Z,96.62
2023-04-19T04:48:23.727Z,96.31
2023-04-19T04:49:23.882Z,96.11
2023-04-19T04:50:24.063Z,96.21
2023-04-19T04:51:24.268Z,96.11
2023-04-19T04:52:24.419Z,95.96
2023-04-19T04:53:24.602Z,95.54
2023-04-19T04:54:24.779Z,95.44
2023-04-19T04:55:24.994Z,95.50
2023-04-19T04:56:25.184Z,94.78
2023-04-19T04:57:25.336Z,94.15
2023-04-19T04:58:25.634Z,94.01
2023-04-19T04:59:25.830Z,94.01
2023-04-19T05:00:26.038Z,93.90
2023-04-19T05:01:26.237Z,93.07
2023-04-19T05:02:26.588Z,93.02
2023-04-19T05:03:26.672Z,92.72
2023-04-19T05:04:26.988Z,92.10
2023-04-19T05:05:27.270Z,91.89
2023-04-19T05:06:27.582Z,91.74
2023-04-19T05:07:27.776Z,91.22
2023-04-19T05:08:27.946Z,91.12
2023-04-19T05:09:28.106Z,91.18
2023-04-19T05:10:28.412Z,90.35
2023-04-19T05:11:28.722Z,90.04
2023-04-19T05:12:28.892Z,89.79
2023-04-19T05:13:29.065Z,89.34
2023-04-19T05:14:29.235Z,88.78
2023-04-19T05:15:29.539Z,88.26
2023-04-19T05:16:29.918Z,88.06
2023-04-19T05:17:30.160Z,87.74
2023-04-19T05:18:30.327Z,87.08
2023-04-19T05:19:30.615Z,86.77
2023-04-19T05:20:30.906Z,86.32
2023-04-19T05:21:31.237Z,85.84
2023-04-19T05:22:31.504Z,85.80
2023-04-19T05:23:31.816Z,85.39
2023-04-19T05:24:32.105Z,85.18
2023-04-19T05:25:32.291Z,85.18
2023-04-19T05:26:32.526Z,84.83
2023-04-19T05:27:32.749Z,84.28
2023-04-19T05:28:33.063Z,83.55
2023-04-19T05:29:33.231Z,83.34
2023-04-19T05:30:33.517Z,83.65
2023-04-19T05:31:33.875Z,84.00
2023-04-19T05:32:34.130Z,83.80
2023-04-19T05:33:34.187Z,83.65
2023-04-19T05:34:34.396Z,83.55
2023-04-19T05:35:34.684Z,82.93
2023-04-19T05:36:34.866Z,83.25
2023-04-19T05:37:35.034Z,83.25
2023-04-19T05:38:35.217Z,83.20
2023-04-19T05:39:35.430Z,82.31
2023-04-19T05:40:35.713Z,82.69
2023-04-19T05:41:35.972Z,82.48
2023-04-19T05:42:36.196Z,82.17
2023-04-19T05:43:36.503Z,82.17
2023-04-19T05:44:36.797Z,82.59
2023-04-19T05:45:37.098Z,82.03
2023-04-19T05:46:37.434Z,81.62
2023-04-19T05:47:37.609Z,80.90
2023-04-19T05:48:37.877Z,80.90
2023-04-19T05:49:38.182Z,80.14
2023-04-19T05:50:38.512Z,80.18
2023-04-19T05:51:38.676Z,80.58
2023-04-19T05:52:38.847Z,80.14
2023-04-19T05:53:39.150Z,79.41
2023-04-19T05:54:39.320Z,79.11
2023-04-19T05:55:39.630Z,78.86
2023-04-19T05:56:39.934Z,78.86
2023-04-19T05:57:40.126Z,78.62
2023-04-19T05:58:40.286Z,77.73
2023-04-19T05:59:40.630Z,77.76
2023-04-19T06:00:40.880Z,78.49
2023-04-19T06:01:41.275Z,78.59
2023-04-19T06:02:41.482Z,78.66
2023-04-19T06:03:41.981Z,78.14
2023-04-19T06:04:42.126Z,78.14
2023-04-19T06:05:42.149Z,78.45
2023-04-19T06:06:42.342Z,78.66
2023-04-19T06:07:47.369Z,78.38
2023-04-19T06:08:42.723Z,78.28
2023-04-19T06:09:43.038Z,77.97
2023-04-19T06:11:50.868Z,77.25
2023-04-19T06:12:43.671Z,77.04
2023-04-19T06:13:43.958Z,77.15
2023-04-19T06:14:44.152Z,77.76
2023-04-19T06:15:44.459Z,77.42
2023-04-19T06:16:44.660Z,75.98
2023-04-19T06:17:44.878Z,75.87
2023-04-19T06:18:45.106Z,75.67
2023-04-19T06:19:45.310Z,75.05
2023-04-19T06:20:45.617Z,74.91
2023-04-19T06:21:45.808Z,74.91
2023-04-19T06:22:46.008Z,74.40
2023-04-19T06:23:46.270Z,74.08
2023-04-19T06:24:46.578Z,73.88
2023-04-19T06:25:46.762Z,73.98
2023-04-19T06:26:47.076Z,73.88
2023-04-19T06:27:47.260Z,74.40
2023-04-19T06:28:47.413Z,74.71
2023-04-19T06:29:49.806Z,73.98
2023-04-19T06:30:48.062Z,73.26
2023-04-19T06:31:48.263Z,73.74
2023-04-19T06:32:48.389Z,73.23
2023-04-19T06:33:48.560Z,73.23
2023-04-19T06:34:48.861Z,73.02
2023-04-19T06:35:49.027Z,72.81
2023-04-19T06:36:49.352Z,73.13
2023-04-19T06:37:50.892Z,73.02
2023-04-19T06:38:49.698Z,72.99
2023-04-19T06:39:49.998Z,73.30
2023-04-19T06:40:50.165Z,72.47
2023-04-19T06:41:50.364Z,71.96
2023-04-19T06:42:50.544Z,72.47
2023-04-19T06:43:50.702Z,72.88
2023-04-19T06:44:51.152Z,72.99
2023-04-19T06:45:51.124Z,72.96
2023-04-19T06:46:51.272Z,72.34
2023-04-19T06:47:51.563Z,72.75
2023-04-19T06:48:51.621Z,72.44
2023-04-19T06:49:51.919Z,72.03
2023-04-19T06:50:52.212Z,70.79
2023-04-19T06:51:52.543Z,71.20
2023-04-19T06:52:52.683Z,71.31
2023-04-19T06:53:52.906Z,71.41
2023-04-19T06:54:53.187Z,71.58
2023-04-19T06:55:53.481Z,71.28
2023-04-19T06:56:53.682Z,71.17
2023-04-19T06:57:53.961Z,71.48
2023-04-19T06:58:54.241Z,71.37
2023-04-19T06:59:54.428Z,70.86
2023-04-19T07:00:54.720Z,71.28
2023-04-19T07:01:55.102Z,70.86
2023-04-19T07:02:55.337Z,70.94
2023-04-19T07:03:57.371Z,70.42
2023-04-19T07:04:55.784Z,70.21
2023-04-19T07:05:55.886Z,70.42
2023-04-19T07:06:56.205Z,69.60
2023-04-19T07:07:56.358Z,69.46
2023-04-19T07:08:56.654Z,69.56
2023-04-19T07:09:56.954Z,68.43
2023-04-19T07:10:57.259Z,68.33
2023-04-19T07:11:57.454Z,68.74
2023-04-19T07:12:57.614Z,69.23
2023-04-19T07:13:57.929Z,68.19
2023-04-19T07:14:58.084Z,67.30
2023-04-19T07:15:58.503Z,67.20
2023-04-19T07:16:58.565Z,68.23
2023-04-19T07:17:58.852Z,68.51
2023-04-19T07:18:58.930Z,68.19
2023-04-19T07:19:59.090Z,67.79
2023-04-19T07:20:59.394Z,67.89
2023-04-19T07:21:59.854Z,67.55
2023-04-19T07:22:59.870Z,67.55
2023-04-19T07:24:00.190Z,67.76
2023-04-19T07:25:00.493Z,67.44
2023-04-19T07:26:00.764Z,67.76
2023-04-19T07:27:01.113Z,67.72
2023-04-19T07:28:01.240Z,68.03
2023-04-19T07:29:01.561Z,65.36
2023-04-19T07:30:01.760Z,64.61
2023-04-19T07:31:01.898Z,63.69
2023-04-19T07:32:02.250Z,63.18
2023-04-19T07:33:02.428Z,63.18
2023-04-19T07:34:02.559Z,62.77
2023-04-19T07:35:02.867Z,62.87
2023-04-19T07:36:03.037Z,62.36
2023-04-19T07:37:03.243Z,62.74
2023-04-19T07:38:03.524Z,62.46
2023-04-19T07:39:03.825Z,62.46
2023-04-19T07:40:04.123Z,62.15
2023-04-19T07:41:04.320Z,62.15
2023-04-19T07:42:04.497Z,62.54
2023-04-19T07:43:04.760Z,62.26
2023-04-19T07:44:05.076Z,62.63
2023-04-19T07:45:05.256Z,62.63
2023-04-19T07:46:05.553Z,62.95
2023-04-19T07:47:05.716Z,62.92
2023-04-19T07:48:05.953Z,62.61
2023-04-19T07:49:06.080Z,63.22
2023-04-19T07:50:06.335Z,62.71
2023-04-19T07:51:06.488Z,62.27
2023-04-19T07:52:06.645Z,63.09
2023-04-19T07:53:06.828Z,61.15
2023-04-19T07:54:07.036Z,61.25
2023-04-19T07:55:07.374Z,61.63
2023-04-19T07:56:07.388Z,61.63
2023-04-19T07:57:07.606Z,61.83
2023-04-19T07:58:07.767Z,60.94
2023-04-19T07:59:09.321Z,61.04
2023-04-19T08:00:08.294Z,61.04
2023-04-19T08:01:08.383Z,61.11
2023-04-19T08:02:08.640Z,60.88
2023-04-19T08:03:08.879Z,61.16
2023-04-19T08:04:09.221Z,59.07
2023-04-19T08:05:09.159Z,59.55
2023-04-19T08:06:09.218Z,59.45
2023-04-19T08:07:09.416Z,58.84
2023-04-19T08:08:09.565Z,57.81
2023-04-19T08:09:09.879Z,57.51
2023-04-19T08:10:09.940Z,57.71
2023-04-19T08:11:10.141Z,57.51
2023-04-19T08:12:14.834Z,57.20
2023-04-19T08:13:10.510Z,57.79
2023-04-19T08:14:22.302Z,57.17
2023-04-19T08:15:32.904Z,56.35
2023-04-19T08:17:24.609Z,56.87
2023-04-19T08:18:11.486Z,56.84
2023-04-19T08:19:11.599Z,56.63
2023-04-19T08:20:11.776Z,56.84
2023-04-19T08:21:11.993Z,56.84
2023-04-19T08:22:12.184Z,57.22
2023-04-19T08:23:21.293Z,57.12
2023-04-19T08:24:12.502Z,56.61
2023-04-19T08:25:12.685Z,56.71
2023-04-19T08:26:12.874Z,56.51
2023-04-19T08:27:13.107Z,56.74
2023-04-19T08:28:13.233Z,56.40
2023-04-19T08:29:13.437Z,56.27
2023-04-19T08:30:13.596Z,55.84
2023-04-19T08:31:13.783Z,54.44
2023-04-19T08:32:14.063Z,55.15
2023-04-19T08:33:14.197Z,55.05
2023-04-19T08:34:14.363Z,55.56
2023-04-19T08:35:14.548Z,55.33
2023-04-19T08:36:17.138Z,54.03
2023-04-19T08:37:14.918Z,54.85
2023-04-19T08:38:15.068Z,54.44
2023-04-19T08:39:29.063Z,54.54
2023-04-19T08:40:15.427Z,53.62
2023-04-19T08:41:15.607Z,53.64
2023-04-19T08:42:28.889Z,53.85
2023-04-19T08:43:15.994Z,54.13
2023-04-19T08:44:19.835Z,53.31
2023-04-19T08:45:27.835Z,52.19
2023-04-19T08:46:16.569Z,51.27
2023-04-19T08:47:23.608Z,51.48
2023-04-19T08:48:16.923Z,52.80
2023-04-19T08:49:17.466Z,53.11
2023-04-19T08:50:31.208Z,53.59
2023-04-19T08:51:17.452Z,53.42
2023-04-19T08:52:17.578Z,53.70
2023-04-19T08:53:24.902Z,54.08
2023-04-19T08:54:17.938Z,53.47
2023-04-19T08:55:18.142Z,53.57
2023-04-19T08:56:32.005Z,53.88
2023-04-19T08:57:18.509Z,53.06
2023-04-19T08:58:28.620Z,53.16
2023-04-19T08:59:19.697Z,52.93
2023-04-19T09:00:19.025Z,52.47
2023-04-19T09:01:30.950Z,53.16
2023-04-19T09:02:19.575Z,53.16
2023-04-19T09:03:19.662Z,53.67
2023-04-19T09:04:34.832Z,51.63
2023-04-19T09:05:20.223Z,51.76
2023-04-19T09:06:20.199Z,51.55
2023-04-19T09:07:20.382Z,51.73
2023-04-19T09:08:20.482Z,51.30
2023-04-19T09:10:20.855Z,50.99
2023-04-19T09:11:21.030Z,50.59
2023-04-19T09:12:21.244Z,50.89
2023-04-19T09:13:21.426Z,50.99
2023-04-19T09:14:21.614Z,51.20
2023-04-19T09:15:21.801Z,51.32
2023-04-19T09:16:22.181Z,50.71
2023-04-19T09:17:22.223Z,50.28
2023-04-19T09:18:22.524Z,49.95
2023-04-19T09:19:25.154Z,50.59
2023-04-19T09:20:22.716Z,51.07
2023-04-19T09:21:22.910Z,51.56
2023-04-19T09:22:23.120Z,50.34
2023-04-19T09:23:23.279Z,50.01
2023-04-19T09:24:23.896Z,50.01
2023-04-19T09:25:43.746Z,50.23
2023-04-19T09:26:23.950Z,51.25
2023-04-19T09:27:24.049Z,50.84
2023-04-19T09:28:24.182Z,50.34
2023-04-19T09:29:24.374Z,49.32
2023-04-19T09:30:32.463Z,49.21
2023-04-19T09:32:25.084Z,46.87
2023-04-19T09:33:25.173Z,47.94
2023-04-19T09:34:25.288Z,48.14
2023-04-19T09:35:25.470Z,48.14
2023-04-19T09:36:25.663Z,48.34
2023-04-19T09:37:39.036Z,48.11
2023-04-19T09:38:26.055Z,47.81
2023-04-19T09:39:26.271Z,47.89
2023-04-19T09:40:26.441Z,47.66
2023-04-19T09:41:26.618Z,47.03
2023-04-19T09:42:47.194Z,45.22
2023-04-19T09:43:55.894Z,45.53
2023-04-19T09:45:30.494Z,46.14
2023-04-19T09:46:27.600Z,45.63
2023-04-19T09:47:27.841Z,45.91
2023-04-19T09:48:27.996Z,46.34
2023-04-19T09:49:41.537Z,46.62
2023-04-19T09:50:28.848Z,46.17
2023-04-19T09:51:28.615Z,43.49
2023-04-19T09:52:28.815Z,44.02
2023-04-19T09:53:28.994Z,43.79
2023-04-19T09:54:29.214Z,42.90
2023-04-19T09:55:31.718Z,42.59
2023-04-19T09:56:29.641Z,42.37
2023-04-19T09:57:29.871Z,42.57
2023-04-19T09:58:38.285Z,41.75
2023-04-19T09:59:30.250Z,42.94
2023-04-19T10:00:36.033Z,40.52
2023-04-19T10:01:30.690Z,40.82
2023-04-19T10:02:30.979Z,39.86
2023-04-19T10:03:31.173Z,41.35
2023-04-19T10:04:44.130Z,41.33
2023-04-19T10:05:31.525Z,42.22
2023-04-19T10:06:45.700Z,40.84
2023-04-19T10:07:31.915Z,41.13
2023-04-19T10:08:32.061Z,40.74
2023-04-19T10:09:34.103Z,41.75
2023-04-19T10:10:41.950Z,40.84
2023-04-19T10:11:32.849Z,40.11
2023-04-19T10:12:54.848Z,40.58
2023-04-19T10:13:33.055Z,40.52
2023-04-19T10:14:33.295Z,41.35
2023-04-19T10:15:47.206Z,41.06
2023-04-19T10:16:33.704Z,41.84
2023-04-19T10:17:33.906Z,41.14
2023-04-19T10:18:34.044Z,41.25
2023-04-19T10:19:34.263Z,41.23
2023-04-19T10:20:34.472Z,41.72
2023-04-19T10:21:34.683Z,40.37
2023-04-19T10:22:34.905Z,39.78
2023-04-19T10:23:35.059Z,39.15
2023-04-19T10:24:35.268Z,38.87
2023-04-19T10:25:35.497Z,39.87
2023-04-19T10:26:35.702Z,39.97
2023-04-19T10:27:35.949Z,39.99
2023-04-19T10:28:36.104Z,40.78
2023-04-19T10:29:36.296Z,40.66
2023-04-19T10:30:36.505Z,40.23
2023-04-19T10:31:36.732Z,39.81
2023-04-19T10:32:36.989Z,39.95
2023-04-19T10:33:37.143Z,39.36
2023-04-19T10:34:37.360Z,39.64
2023-04-19T10:35:37.565Z,38.56
2023-04-19T10:36:37.765Z,37.46
2023-04-19T10:37:37.998Z,38.06
2023-04-19T10:38:38.193Z,38.07
2023-04-19T10:39:38.385Z,39.06
2023-04-19T10:40:38.601Z,38.34
2023-04-19T10:41:38.819Z,38.24
2023-04-19T10:42:39.059Z,37.73
2023-04-19T10:43:39.238Z,38.04
2023-04-19T10:44:39.429Z,36.65
2023-04-19T10:45:39.688Z,37.46
2023-04-19T10:46:40.083Z,38.06
2023-04-19T10:47:40.072Z,38.45
2023-04-19T10:48:40.244Z,37.54
2023-04-19T10:49:40.422Z,37.95
2023-04-19T10:50:40.648Z,38.32
2023-04-19T10:51:40.833Z,37.63
2023-04-19T10:52:41.067Z,37.92
2023-04-19T10:53:41.235Z,37.70
2023-04-19T10:54:41.452Z,35.80
2023-04-19T10:55:41.659Z,36.14
2023-04-19T10:56:41.873Z,35.54
2023-04-19T10:57:42.112Z,36.12
2023-04-19T10:58:42.305Z,36.43
2023-04-19T10:59:42.496Z,36.49
2023-04-19T11:00:42.716Z,35.49
2023-04-19T11:01:43.154Z,35.00
2023-04-19T11:02:43.272Z,35.71
2023-04-19T11:03:43.527Z,35.49
2023-04-19T11:04:43.592Z,35.31
2023-04-19T11:05:43.716Z,34.12
2023-04-19T11:06:43.933Z,33.32
2023-04-19T11:07:44.160Z,33.61
2023-04-19T11:08:44.348Z,34.20
2023-04-19T11:09:44.543Z,34.10
2023-04-19T11:10:44.760Z,34.00
2023-04-19T11:11:44.983Z,33.81
2023-04-19T11:12:45.166Z,34.81
2023-04-19T11:13:45.329Z,33.80
2023-04-19T11:14:45.538Z,33.18
2023-04-19T11:15:45.788Z,32.39
2023-04-19T11:16:46.518Z,33.20
2023-04-19T11:17:46.212Z,34.10
2023-04-19T11:18:46.368Z,33.81
2023-04-19T11:19:46.571Z,34.49
2023-04-19T11:20:46.786Z,33.68
2023-04-19T11:21:47.002Z,33.39
2023-04-19T11:22:47.218Z,34.49
2023-04-19T11:23:47.507Z,33.98
2023-04-19T11:24:47.629Z,33.88
2023-04-19T11:25:47.832Z,34.39
2023-04-19T11:26:48.033Z,33.69
2023-04-19T11:27:48.300Z,33.68
2023-04-19T11:28:48.454Z,32.85
2023-04-19T11:29:48.662Z,32.35
2023-04-19T11:30:48.879Z,32.56
2023-04-19T11:31:49.139Z,33.05
2023-04-19T11:32:49.356Z,32.65
2023-04-19T11:33:49.524Z,33.26
2023-04-19T11:34:49.736Z,33.66
2023-04-19T11:35:49.942Z,32.97
2023-04-19T11:36:50.163Z,33.69
2023-04-19T11:37:50.347Z,33.68
2023-04-19T11:38:50.523Z,33.49
2023-04-19T11:39:50.688Z,33.29
2023-04-19T11:40:50.862Z,33.58
2023-04-19T11:41:51.068Z,33.88
2023-04-19T11:42:51.315Z,34.59
2023-04-19T11:43:51.452Z,34.68
2023-04-19T11:44:51.678Z,34.66
2023-04-19T11:45:51.885Z,34.55
2023-04-19T11:46:52.114Z,33.26
2023-04-19T11:47:52.349Z,33.39
2023-04-19T11:48:52.550Z,33.37
2023-04-19T11:49:52.686Z,33.44
2023-04-19T11:50:52.853Z,32.35
2023-04-19T11:51:53.092Z,32.76
2023-04-19T11:52:53.285Z,33.85
2023-04-19T11:53:53.474Z,33.34
2023-04-19T11:54:53.669Z,33.26
2023-04-19T11:55:54.010Z,32.27
2023-04-19T11:56:54.064Z,32.97
2023-04-19T11:57:54.290Z,32.46
2023-04-19T11:58:54.510Z,32.47
2023-04-19T11:59:54.686Z,32.49
2023-04-19T12:00:54.909Z,33.00
2023-04-19T12:01:55.158Z,33.00
2023-04-19T12:02:55.595Z,33.29
2023-04-19T12:03:55.889Z,33.29
2023-04-19T12:04:55.900Z,34.09
2023-04-19T12:05:56.203Z,33.69
2023-04-19T12:06:56.108Z,33.68
2023-04-19T12:07:56.290Z,33.27
2023-04-19T12:08:56.467Z,32.98
2023-04-19T12:09:56.662Z,33.18
2023-04-19T12:10:56.867Z,32.98
2023-04-19T12:11:57.104Z,32.68
2023-04-19T12:12:57.316Z,33.18
2023-04-19T12:13:57.480Z,32.49
2023-04-19T12:14:57.680Z,32.69
2023-04-19T12:15:57.894Z,32.90
2023-04-19T12:16:58.202Z,33.49
2023-04-19T12:17:58.386Z,33.78
2023-04-19T12:18:58.525Z,33.58
2023-04-19T12:19:58.732Z,32.78
2023-04-19T12:21:01.234Z,32.68
2023-04-19T12:21:59.146Z,32.27
2023-04-19T12:22:59.369Z,32.88
2023-04-19T12:23:59.566Z,32.88
2023-04-19T12:24:59.758Z,33.30
2023-04-19T12:25:59.974Z,33.49
2023-04-19T12:27:00.169Z,33.40
2023-04-19T12:28:00.364Z,33.80
2023-04-19T12:29:00.540Z,33.37
2023-04-19T12:30:00.756Z,31.27
2023-04-19T12:31:01.016Z,32.39
2023-04-19T12:32:01.169Z,32.59
2023-04-19T12:33:01.395Z,33.59
2023-04-19T12:34:01.540Z,33.76
2023-04-19T12:35:01.810Z,32.88
2023-04-19T12:36:01.955Z,32.68
2023-04-19T12:37:02.167Z,33.00
2023-04-19T12:38:02.373Z,33.00
2023-04-19T12:39:02.584Z,33.58
2023-04-19T12:40:02.854Z,33.07
2023-04-19T12:41:03.015Z,32.78
2023-04-19T12:42:03.209Z,33.27
2023-04-19T12:43:03.438Z,32.95
2023-04-19T12:44:03.633Z,32.66
2023-04-19T12:45:03.830Z,32.17
2023-04-19T12:46:04.105Z,32.17
2023-04-19T12:47:04.233Z,32.68
2023-04-19T12:48:04.468Z,32.18
2023-04-19T12:49:04.650Z,32.37
2023-04-19T12:50:04.886Z,31.98
2023-04-19T12:51:05.073Z,32.59
2023-04-19T12:52:05.293Z,33.29
2023-04-19T12:53:05.495Z,33.98
2023-04-19T12:54:05.712Z,33.58
2023-04-19T12:55:05.953Z,33.07
2023-04-19T12:56:06.144Z,33.08
2023-04-19T12:57:06.337Z,33.20
2023-04-19T12:58:06.545Z,33.30
2023-04-19T12:59:06.765Z,33.10
2023-04-19T13:00:07.026Z,33.71
2023-04-19T13:01:07.227Z,33.71